Howe, Oklahoma
Current Conditions -  °F | °C
As of 9:35 AM on Saturday 25 Oct 2014 (Local Time) from KRKR Reporting Station
Clear Clear  
Wind Chill: 69°   Ceiling: Unl
Heat Index: 69°   Visibility: 10mi
Dew Point: 59°   Wind: 3mph
Humidity: 70%   Direction: 220°SW
Pressure: 30.13"   Gusts: NA
Location:  34.95°N, 94.64°W
Report Text: KRKR 251435Z AUTO 22003KT 10SM CLR 21/15 A3013 RMK AO2 T02070150
Loading
Personal Weather Stations






























Interactive Weather Map
Tropical Storm Tracking
New forecast layout! Learn more

10-Day Weather Forecast

Advertisements
Track Severe Weather on mobile